sensor_id;sensor_type;location;lat;lon;timestamp;temperature;humidity
51982;DHT22;37998;53.416;6.730;2023-03-14T00:01:57;9.90;99.90
51982;DHT22;37998;53.416;6.730;2023-03-14T00:04:23;10.00;99.90
51982;DHT22;37998;53.416;6.730;2023-03-14T00:06:49;9.90;99.90
51982;DHT22;37998;53.416;6.730;2023-03-14T00:09:16;10.00;99.90
51982;DHT22;37998;53.416;6.730;2023-03-14T00:11:41;9.90;99.90
51982;DHT22;37998;53.416;6.730;2023-03-14T00:14:07;10.00;99.90
51982;DHT22;37998;53.416;6.730;2023-03-14T00:16:33;10.00;99.90
51982;DHT22;37998;53.416;6.730;2023-03-14T00:18:59;10.00;99.90
51982;DHT22;37998;53.416;6.730;2023-03-14T00:21:25;9.90;99.90
51982;DHT22;37998;53.416;6.730;2023-03-14T00:23:51;9.90;99.90
51982;DHT22;37998;53.416;6.730;2023-03-14T00:26:19;9.90;99.90
51982;DHT22;37998;53.416;6.730;2023-03-14T00:28:45;9.90;99.90
51982;DHT22;37998;53.416;6.730;2023-03-14T00:31:14;9.80;99.90
51982;DHT22;37998;53.416;6.730;2023-03-14T00:33:40;9.80;99.90
51982;DHT22;37998;53.416;6.730;2023-03-14T00:36:08;9.80;99.90
51982;DHT22;37998;53.416;6.730;2023-03-14T00:38:35;9.80;99.90
51982;DHT22;37998;53.416;6.730;2023-03-14T00:41:05;9.80;99.90
51982;DHT22;37998;53.416;6.730;2023-03-14T00:43:31;9.90;99.90
51982;DHT22;37998;53.416;6.730;2023-03-14T00:45:57;9.90;99.90
51982;DHT22;37998;53.416;6.730;2023-03-14T00:48:22;9.90;99.90
51982;DHT22;37998;53.416;6.730;2023-03-14T00:50:48;10.00;99.90
51982;DHT22;37998;53.416;6.730;2023-03-14T00:53:14;10.10;99.90
51982;DHT22;37998;53.416;6.730;2023-03-14T00:55:41;10.10;99.90
51982;DHT22;37998;53.416;6.730;2023-03-14T00:58:09;10.10;99.90
51982;DHT22;37998;53.416;6.730;2023-03-14T01:00:35;10.10;99.90
51982;DHT22;37998;53.416;6.730;2023-03-14T01:03:01;10.00;99.90
51982;DHT22;37998;53.416;6.730;2023-03-14T01:05:27;10.00;99.90
51982;DHT22;37998;53.416;6.730;2023-03-14T01:07:53;9.90;99.90
51982;DHT22;37998;53.416;6.730;2023-03-14T01:10:19;9.90;99.90
51982;DHT22;37998;53.416;6.730;2023-03-14T01:12:45;10.00;99.90
51982;DHT22;37998;53.416;6.730;2023-03-14T01:15:10;10.00;99.90
51982;DHT22;37998;53.416;6.730;2023-03-14T01:17:37;10.00;99.90
51982;DHT22;37998;53.416;6.730;2023-03-14T01:20:05;10.10;99.90
51982;DHT22;37998;53.416;6.730;2023-03-14T01:22:38;10.10;99.90
51982;DHT22;37998;53.416;6.730;2023-03-14T01:25:10;10.10;99.90
51982;DHT22;37998;53.416;6.730;2023-03-14T01:27:36;10.10;99.90
51982;DHT22;37998;53.416;6.730;2023-03-14T01:30:03;10.20;99.90
51982;DHT22;37998;53.416;6.730;2023-03-14T01:32:29;10.20;99.90
51982;DHT22;37998;53.416;6.730;2023-03-14T01:34:55;10.20;99.90
51982;DHT22;37998;53.416;6.730;2023-03-14T01:37:21;10.20;99.90
51982;DHT22;37998;53.416;6.730;2023-03-14T01:39:47;10.20;99.90
51982;DHT22;37998;53.416;6.730;2023-03-14T01:42:14;10.20;99.90
51982;DHT22;37998;53.416;6.730;2023-03-14T01:47:53;10.10;99.90
51982;DHT22;37998;53.416;6.730;2023-03-14T01:50:19;10.00;99.90
51982;DHT22;37998;53.416;6.730;2023-03-14T01:52:48;10.00;99.90
51982;DHT22;37998;53.416;6.730;2023-03-14T01:55:22;10.00;99.90
51982;DHT22;37998;53.416;6.730;2023-03-14T01:57:59;10.00;99.90
51982;DHT22;37998;53.416;6.730;2023-03-14T02:00:28;10.10;99.90
51982;DHT22;37998;53.416;6.730;2023-03-14T02:03:05;10.20;99.90
51982;DHT22;37998;53.416;6.730;2023-03-14T02:05:36;10.20;99.90
51982;DHT22;37998;53.416;6.730;2023-03-14T02:08:07;10.20;99.90
51982;DHT22;37998;53.416;6.730;2023-03-14T02:10:45;10.30;99.90
51982;DHT22;37998;53.416;6.730;2023-03-14T02:13:11;10.20;99.90
51982;DHT22;37998;53.416;6.730;2023-03-14T02:15:38;10.30;99.90
51982;DHT22;37998;53.416;6.730;2023-03-14T02:18:04;10.30;99.90
51982;DHT22;37998;53.416;6.730;2023-03-14T02:23:00;10.30;99.90
51982;DHT22;37998;53.416;6.730;2023-03-14T02:28:03;10.20;99.90
51982;DHT22;37998;53.416;6.730;2023-03-14T02:30:30;10.20;99.90
51982;DHT22;37998;53.416;6.730;2023-03-14T02:33:17;10.20;99.90
51982;DHT22;37998;53.416;6.730;2023-03-14T02:38:58;10.00;99.90
51982;DHT22;37998;53.416;6.730;2023-03-14T02:41:26;9.90;99.90
51982;DHT22;37998;53.416;6.730;2023-03-14T02:43:52;9.90;99.90
51982;DHT22;37998;53.416;6.730;2023-03-14T02:46:19;9.80;99.90
51982;DHT22;37998;53.416;6.730;2023-03-14T02:48:58;9.80;99.90
51982;DHT22;37998;53.416;6.730;2023-03-14T02:51:27;9.80;99.90
51982;DHT22;37998;53.416;6.730;2023-03-14T02:53:54;9.70;99.90
51982;DHT22;37998;53.416;6.730;2023-03-14T02:56:20;9.80;99.90
51982;DHT22;37998;53.416;6.730;2023-03-14T02:58:45;9.70;99.90
51982;DHT22;37998;53.416;6.730;2023-03-14T03:01:11;9.70;99.90
51982;DHT22;37998;53.416;6.730;2023-03-14T03:03:37;9.60;99.90
51982;DHT22;37998;53.416;6.730;2023-03-14T03:06:02;9.70;99.90
51982;DHT22;37998;53.416;6.730;2023-03-14T03:08:28;9.70;99.90
51982;DHT22;37998;53.416;6.730;2023-03-14T03:10:54;9.60;99.90
51982;DHT22;37998;53.416;6.730;2023-03-14T03:13:20;9.70;99.90
51982;DHT22;37998;53.416;6.730;2023-03-14T03:15:46;9.60;99.90
51982;DHT22;37998;53.416;6.730;2023-03-14T03:18:11;9.60;99.90
51982;DHT22;37998;53.416;6.730;2023-03-14T03:20:37;9.00;99.90
51982;DHT22;37998;53.416;6.730;2023-03-14T03:23:03;9.60;99.90
51982;DHT22;37998;53.416;6.730;2023-03-14T03:25:29;9.60;99.90
51982;DHT22;37998;53.416;6.730;2023-03-14T03:27:55;9.60;99.90
51982;DHT22;37998;53.416;6.730;2023-03-14T03:30:20;9.60;99.90
51982;DHT22;37998;53.416;6.730;2023-03-14T03:32:46;9.50;99.90
51982;DHT22;37998;53.416;6.730;2023-03-14T03:35:12;9.50;99.90
51982;DHT22;37998;53.416;6.730;2023-03-14T03:37:38;9.50;99.90
51982;DHT22;37998;53.416;6.730;2023-03-14T03:40:05;9.60;99.90
51982;DHT22;37998;53.416;6.730;2023-03-14T03:42:32;9.50;99.90
51982;DHT22;37998;53.416;6.730;2023-03-14T03:44:59;9.40;99.90
51982;DHT22;37998;53.416;6.730;2023-03-14T03:47:25;9.50;99.90
51982;DHT22;37998;53.416;6.730;2023-03-14T03:49:50;9.40;99.90
51982;DHT22;37998;53.416;6.730;2023-03-14T03:52:16;9.40;99.90
51982;DHT22;37998;53.416;6.730;2023-03-14T03:54:42;9.30;99.90
51982;DHT22;37998;53.416;6.730;2023-03-14T03:57:07;9.30;99.90
51982;DHT22;37998;53.416;6.730;2023-03-14T03:59:33;9.20;99.90
51982;DHT22;37998;53.416;6.730;2023-03-14T04:01:59;9.30;99.90
51982;DHT22;37998;53.416;6.730;2023-03-14T04:04:25;9.30;99.90
51982;DHT22;37998;53.416;6.730;2023-03-14T04:06:50;9.20;99.90
51982;DHT22;37998;53.416;6.730;2023-03-14T04:09:16;9.20;99.90
51982;DHT22;37998;53.416;6.730;2023-03-14T04:11:42;9.20;99.90
51982;DHT22;37998;53.416;6.730;2023-03-14T04:14:07;9.20;99.90
51982;DHT22;37998;53.416;6.730;2023-03-14T04:16:33;9.20;99.90
51982;DHT22;37998;53.416;6.730;2023-03-14T04:19:00;9.20;99.90
51982;DHT22;37998;53.416;6.730;2023-03-14T04:21:26;9.20;99.90
51982;DHT22;37998;53.416;6.730;2023-03-14T04:23:51;9.20;99.90
51982;DHT22;37998;53.416;6.730;2023-03-14T04:26:17;9.20;99.90
51982;DHT22;37998;53.416;6.730;2023-03-14T04:28:43;9.20;99.90
51982;DHT22;37998;53.416;6.730;2023-03-14T04:31:10;9.20;99.90
51982;DHT22;37998;53.416;6.730;2023-03-14T04:33:35;9.30;99.90
51982;DHT22;37998;53.416;6.730;2023-03-14T04:36:03;9.30;99.90
51982;DHT22;37998;53.416;6.730;2023-03-14T04:38:30;8.50;99.90
51982;DHT22;37998;53.416;6.730;2023-03-14T04:40:55;9.30;99.90
51982;DHT22;37998;53.416;6.730;2023-03-14T04:43:21;9.30;99.90
51982;DHT22;37998;53.416;6.730;2023-03-14T04:45:47;9.30;99.90
51982;DHT22;37998;53.416;6.730;2023-03-14T04:48:12;9.20;99.90
51982;DHT22;37998;53.416;6.730;2023-03-14T04:50:38;9.20;99.90
51982;DHT22;37998;53.416;6.730;2023-03-14T04:53:05;9.20;99.90
51982;DHT22;37998;53.416;6.730;2023-03-14T04:55:32;9.30;99.90
51982;DHT22;37998;53.416;6.730;2023-03-14T04:57:58;9.30;99.90
51982;DHT22;37998;53.416;6.730;2023-03-14T05:00:24;9.20;99.90
51982;DHT22;37998;53.416;6.730;2023-03-14T05:02:50;9.10;99.90
51982;DHT22;37998;53.416;6.730;2023-03-14T05:05:15;9.10;99.90
51982;DHT22;37998;53.416;6.730;2023-03-14T05:07:41;9.10;99.90
51982;DHT22;37998;53.416;6.730;2023-03-14T05:10:08;9.10;99.90
51982;DHT22;37998;53.416;6.730;2023-03-14T05:12:34;9.10;99.90
51982;DHT22;37998;53.416;6.730;2023-03-14T05:14:59;9.00;99.90
51982;DHT22;37998;53.416;6.730;2023-03-14T05:17:25;9.10;99.90
51982;DHT22;37998;53.416;6.730;2023-03-14T05:19:50;9.10;99.90
51982;DHT22;37998;53.416;6.730;2023-03-14T05:22:17;9.10;99.90
51982;DHT22;37998;53.416;6.730;2023-03-14T05:24:43;9.10;99.90
51982;DHT22;37998;53.416;6.730;2023-03-14T05:27:08;9.10;99.90
51982;DHT22;37998;53.416;6.730;2023-03-14T05:29:34;9.00;99.90
51982;DHT22;37998;53.416;6.730;2023-03-14T05:32:00;9.00;99.90
51982;DHT22;37998;53.416;6.730;2023-03-14T05:34:25;9.00;99.90
51982;DHT22;37998;53.416;6.730;2023-03-14T05:36:51;9.00;99.90
51982;DHT22;37998;53.416;6.730;2023-03-14T05:39:18;9.00;99.90
51982;DHT22;37998;53.416;6.730;2023-03-14T05:41:43;9.00;99.90
51982;DHT22;37998;53.416;6.730;2023-03-14T05:44:09;9.00;99.90
51982;DHT22;37998;53.416;6.730;2023-03-14T05:46:35;8.90;99.90
51982;DHT22;37998;53.416;6.730;2023-03-14T05:49:00;8.90;99.90
51982;DHT22;37998;53.416;6.730;2023-03-14T05:51:26;9.00;99.90
51982;DHT22;37998;53.416;6.730;2023-03-14T05:53:52;8.90;99.90
51982;DHT22;37998;53.416;6.730;2023-03-14T05:56:19;8.90;99.90
51982;DHT22;37998;53.416;6.730;2023-03-14T05:58:44;8.90;99.90
51982;DHT22;37998;53.416;6.730;2023-03-14T06:01:10;8.90;99.90
51982;DHT22;37998;53.416;6.730;2023-03-14T06:03:36;8.90;99.90
51982;DHT22;37998;53.416;6.730;2023-03-14T06:06:02;8.90;99.90
51982;DHT22;37998;53.416;6.730;2023-03-14T06:08:27;8.90;99.90
51982;DHT22;37998;53.416;6.730;2023-03-14T06:10:54;8.90;99.90
51982;DHT22;37998;53.416;6.730;2023-03-14T06:13:21;9.00;99.90
51982;DHT22;37998;53.416;6.730;2023-03-14T06:15:47;9.00;99.90
51982;DHT22;37998;53.416;6.730;2023-03-14T06:18:12;9.00;99.90
51982;DHT22;37998;53.416;6.730;2023-03-14T06:20:39;8.90;99.90
51982;DHT22;37998;53.416;6.730;2023-03-14T06:23:06;8.90;99.90
51982;DHT22;37998;53.416;6.730;2023-03-14T06:25:32;8.60;99.90
51982;DHT22;37998;53.416;6.730;2023-03-14T06:27:58;8.50;99.90
51982;DHT22;37998;53.416;6.730;2023-03-14T06:30:24;8.40;99.90
51982;DHT22;37998;53.416;6.730;2023-03-14T06:32:49;8.20;99.90
51982;DHT22;37998;53.416;6.730;2023-03-14T06:35:15;8.00;99.90
51982;DHT22;37998;53.416;6.730;2023-03-14T06:37:41;7.80;99.90
51982;DHT22;37998;53.416;6.730;2023-03-14T06:40:08;7.50;99.90
51982;DHT22;37998;53.416;6.730;2023-03-14T06:42:34;7.20;99.90
51982;DHT22;37998;53.416;6.730;2023-03-14T06:45:00;7.00;99.90
51982;DHT22;37998;53.416;6.730;2023-03-14T06:47:26;6.70;99.90
51982;DHT22;37998;53.416;6.730;2023-03-14T06:49:51;6.30;99.90
51982;DHT22;37998;53.416;6.730;2023-03-14T06:52:17;6.10;99.90
51982;DHT22;37998;53.416;6.730;2023-03-14T06:54:43;6.00;99.90
51982;DHT22;37998;53.416;6.730;2023-03-14T06:57:08;5.70;99.90
51982;DHT22;37998;53.416;6.730;2023-03-14T06:59:34;5.60;99.90
51982;DHT22;37998;53.416;6.730;2023-03-14T07:01:59;5.30;99.90
51982;DHT22;37998;53.416;6.730;2023-03-14T07:04:25;5.10;99.90
51982;DHT22;37998;53.416;6.730;2023-03-14T07:06:51;4.90;99.90
51982;DHT22;37998;53.416;6.730;2023-03-14T07:09:17;4.80;99.90
51982;DHT22;37998;53.416;6.730;2023-03-14T07:11:43;4.60;99.90
51982;DHT22;37998;53.416;6.730;2023-03-14T07:14:09;4.50;99.90
51982;DHT22;37998;53.416;6.730;2023-03-14T07:16:34;4.50;99.90
51982;DHT22;37998;53.416;6.730;2023-03-14T07:19:01;4.50;99.90
51982;DHT22;37998;53.416;6.730;2023-03-14T07:21:27;4.40;99.90
51982;DHT22;37998;53.416;6.730;2023-03-14T07:23:53;4.30;99.90
51982;DHT22;37998;53.416;6.730;2023-03-14T07:26:19;4.40;99.90
51982;DHT22;37998;53.416;6.730;2023-03-14T07:28:45;4.40;99.90
51982;DHT22;37998;53.416;6.730;2023-03-14T07:31:10;4.30;99.90
51982;DHT22;37998;53.416;6.730;2023-03-14T07:33:36;4.30;99.90
51982;DHT22;37998;53.416;6.730;2023-03-14T07:36:02;4.30;99.90
51982;DHT22;37998;53.416;6.730;2023-03-14T07:38:28;4.30;99.90
51982;DHT22;37998;53.416;6.730;2023-03-14T07:41:03;4.40;99.90
51982;DHT22;37998;53.416;6.730;2023-03-14T07:43:29;4.40;99.90
51982;DHT22;37998;53.416;6.730;2023-03-14T07:45:55;4.40;99.90
51982;DHT22;37998;53.416;6.730;2023-03-14T07:48:20;4.40;99.90
51982;DHT22;37998;53.416;6.730;2023-03-14T07:50:51;4.30;99.90
51982;DHT22;37998;53.416;6.730;2023-03-14T07:53:18;4.30;99.90
51982;DHT22;37998;53.416;6.730;2023-03-14T07:55:44;4.40;99.90
51982;DHT22;37998;53.416;6.730;2023-03-14T07:58:09;4.40;99.90
51982;DHT22;37998;53.416;6.730;2023-03-14T08:00:35;4.40;99.90
51982;DHT22;37998;53.416;6.730;2023-03-14T08:03:01;4.50;99.90
51982;DHT22;37998;53.416;6.730;2023-03-14T08:05:28;4.60;99.90
51982;DHT22;37998;53.416;6.730;2023-03-14T08:07:53;4.60;99.90
51982;DHT22;37998;53.416;6.730;2023-03-14T08:10:19;4.70;99.90
51982;DHT22;37998;53.416;6.730;2023-03-14T08:12:55;4.80;99.90
51982;DHT22;37998;53.416;6.730;2023-03-14T08:15:22;4.80;99.90
51982;DHT22;37998;53.416;6.730;2023-03-14T08:17:49;4.90;99.90
51982;DHT22;37998;53.416;6.730;2023-03-14T08:20:25;4.90;99.90
51982;DHT22;37998;53.416;6.730;2023-03-14T08:22:51;5.00;99.90
51982;DHT22;37998;53.416;6.730;2023-03-14T08:25:17;5.10;99.90
51982;DHT22;37998;53.416;6.730;2023-03-14T08:27:43;5.10;99.90
51982;DHT22;37998;53.416;6.730;2023-03-14T08:30:14;5.10;99.90
51982;DHT22;37998;53.416;6.730;2023-03-14T08:32:39;5.20;99.90
51982;DHT22;37998;53.416;6.730;2023-03-14T08:35:06;5.30;99.90
51982;DHT22;37998;53.416;6.730;2023-03-14T08:37:32;5.40;99.90
51982;DHT22;37998;53.416;6.730;2023-03-14T08:39:58;5.50;99.90
51982;DHT22;37998;53.416;6.730;2023-03-14T08:42:24;5.50;99.90
51982;DHT22;37998;53.416;6.730;2023-03-14T08:44:51;5.50;99.90
51982;DHT22;37998;53.416;6.730;2023-03-14T08:47:16;5.50;99.90
51982;DHT22;37998;53.416;6.730;2023-03-14T08:49:42;5.50;99.90
51982;DHT22;37998;53.416;6.730;2023-03-14T08:52:08;5.50;99.90
51982;DHT22;37998;53.416;6.730;2023-03-14T08:54:36;5.60;99.90
51982;DHT22;37998;53.416;6.730;2023-03-14T08:57:02;5.60;99.90
51982;DHT22;37998;53.416;6.730;2023-03-14T08:59:28;5.60;99.90
51982;DHT22;37998;53.416;6.730;2023-03-14T09:01:53;5.70;99.90
51982;DHT22;37998;53.416;6.730;2023-03-14T09:04:20;5.70;99.90
51982;DHT22;37998;53.416;6.730;2023-03-14T09:06:45;5.70;99.90
51982;DHT22;37998;53.416;6.730;2023-03-14T09:09:11;5.80;99.90
51982;DHT22;37998;53.416;6.730;2023-03-14T09:11:39;5.90;99.90
51982;DHT22;37998;53.416;6.730;2023-03-14T09:14:04;6.10;99.90
51982;DHT22;37998;53.416;6.730;2023-03-14T09:16:30;6.10;99.90
51982;DHT22;37998;53.416;6.730;2023-03-14T09:18:55;6.10;99.90
51982;DHT22;37998;53.416;6.730;2023-03-14T09:21:25;6.10;99.90
51982;DHT22;37998;53.416;6.730;2023-03-14T09:23:51;6.10;99.90
51982;DHT22;37998;53.416;6.730;2023-03-14T09:26:17;6.10;99.90
51982;DHT22;37998;53.416;6.730;2023-03-14T09:28:42;6.10;99.90
51982;DHT22;37998;53.416;6.730;2023-03-14T09:31:10;6.20;99.90
51982;DHT22;37998;53.416;6.730;2023-03-14T09:33:36;6.20;99.90
51982;DHT22;37998;53.416;6.730;2023-03-14T09:36:02;6.30;99.90
51982;DHT22;37998;53.416;6.730;2023-03-14T09:38:28;6.30;99.90
51982;DHT22;37998;53.416;6.730;2023-03-14T09:40:55;6.40;99.90
51982;DHT22;37998;53.416;6.730;2023-03-14T09:43:24;6.60;99.90
51982;DHT22;37998;53.416;6.730;2023-03-14T09:45:51;6.50;99.90
51982;DHT22;37998;53.416;6.730;2023-03-14T09:48:22;6.50;99.90
51982;DHT22;37998;53.416;6.730;2023-03-14T09:50:52;6.50;99.90
51982;DHT22;37998;53.416;6.730;2023-03-14T09:53:21;6.50;99.90
51982;DHT22;37998;53.416;6.730;2023-03-14T09:55:50;6.40;99.90
51982;DHT22;37998;53.416;6.730;2023-03-14T09:58:22;6.40;99.90
51982;DHT22;37998;53.416;6.730;2023-03-14T10:00:55;6.40;99.90
51982;DHT22;37998;53.416;6.730;2023-03-14T10:05:46;6.50;99.90
51982;DHT22;37998;53.416;6.730;2023-03-14T10:08:13;6.50;99.90
51982;DHT22;37998;53.416;6.730;2023-03-14T10:10:40;6.60;99.90
51982;DHT22;37998;53.416;6.730;2023-03-14T10:13:24;6.60;99.90
51982;DHT22;37998;53.416;6.730;2023-03-14T10:15:54;6.60;99.90
51982;DHT22;37998;53.416;6.730;2023-03-14T10:18:22;6.50;99.90
51982;DHT22;37998;53.416;6.730;2023-03-14T10:20:49;6.40;99.90
51982;DHT22;37998;53.416;6.730;2023-03-14T10:23:31;6.50;99.90
51982;DHT22;37998;53.416;6.730;2023-03-14T10:26:15;6.60;99.90
51982;DHT22;37998;53.416;6.730;2023-03-14T10:28:44;6.60;99.90
51982;DHT22;37998;53.416;6.730;2023-03-14T10:31:14;6.60;99.90
51982;DHT22;37998;53.416;6.730;2023-03-14T10:33:40;6.70;99.90
51982;DHT22;37998;53.416;6.730;2023-03-14T10:38:35;6.80;99.90
51982;DHT22;37998;53.416;6.730;2023-03-14T10:41:02;7.00;99.90
51982;DHT22;37998;53.416;6.730;2023-03-14T10:43:32;7.00;99.90
51982;DHT22;37998;53.416;6.730;2023-03-14T10:46:02;7.00;99.90
51982;DHT22;37998;53.416;6.730;2023-03-14T10:48:32;7.00;99.90
51982;DHT22;37998;53.416;6.730;2023-03-14T10:51:07;7.00;99.90
51982;DHT22;37998;53.416;6.730;2023-03-14T10:53:41;6.80;99.90
51982;DHT22;37998;53.416;6.730;2023-03-14T10:56:17;6.60;99.90
51982;DHT22;37998;53.416;6.730;2023-03-14T10:58:46;6.60;99.90
51982;DHT22;37998;53.416;6.730;2023-03-14T11:07:27;6.90;99.90
51982;DHT22;37998;53.416;6.730;2023-03-14T11:09:56;6.80;99.90
51982;DHT22;37998;53.416;6.730;2023-03-14T11:15:17;7.00;99.90
51982;DHT22;37998;53.416;6.730;2023-03-14T11:20:59;6.90;99.90
51982;DHT22;37998;53.416;6.730;2023-03-14T11:31:48;6.60;99.90
51982;DHT22;37998;53.416;6.730;2023-03-14T11:36:59;6.70;99.90
51982;DHT22;37998;53.416;6.730;2023-03-14T11:39:32;6.80;99.90
51982;DHT22;37998;53.416;6.730;2023-03-14T11:42:00;6.90;99.90
51982;DHT22;37998;53.416;6.730;2023-03-14T11:44:30;7.00;99.90
51982;DHT22;37998;53.416;6.730;2023-03-14T11:47:08;7.10;99.90
51982;DHT22;37998;53.416;6.730;2023-03-14T11:49:50;7.10;99.90
51982;DHT22;37998;53.416;6.730;2023-03-14T11:52:35;7.20;99.90
51982;DHT22;37998;53.416;6.730;2023-03-14T11:55:28;7.40;99.90
51982;DHT22;37998;53.416;6.730;2023-03-14T11:58:05;7.40;99.90
51982;DHT22;37998;53.416;6.730;2023-03-14T12:00:35;7.40;99.90
51982;DHT22;37998;53.416;6.730;2023-03-14T12:05:58;7.20;99.90
51982;DHT22;37998;53.416;6.730;2023-03-14T12:08:38;7.10;99.90
51982;DHT22;37998;53.416;6.730;2023-03-14T12:13:39;7.00;99.90
51982;DHT22;37998;53.416;6.730;2023-03-14T12:18:50;7.00;99.90
51982;DHT22;37998;53.416;6.730;2023-03-14T12:21:16;6.90;99.90
51982;DHT22;37998;53.416;6.730;2023-03-14T12:23:51;6.90;99.90
51982;DHT22;37998;53.416;6.730;2023-03-14T12:26:25;6.80;99.90
51982;DHT22;37998;53.416;6.730;2023-03-14T12:34:30;6.90;99.90
51982;DHT22;37998;53.416;6.730;2023-03-14T12:47:52;6.80;99.40
51982;DHT22;37998;53.416;6.730;2023-03-14T12:50:28;6.80;99.90
51982;DHT22;37998;53.416;6.730;2023-03-14T12:53:13;6.80;99.90
51982;DHT22;37998;53.416;6.730;2023-03-14T13:01:27;6.80;99.90
51982;DHT22;37998;53.416;6.730;2023-03-14T13:03:57;6.90;99.90
51982;DHT22;37998;53.416;6.730;2023-03-14T13:12:11;7.10;99.90
51982;DHT22;37998;53.416;6.730;2023-03-14T13:14:44;7.00;99.90
51982;DHT22;37998;53.416;6.730;2023-03-14T13:17:14;6.90;99.90
51982;DHT22;37998;53.416;6.730;2023-03-14T13:19:42;6.80;99.90
51982;DHT22;37998;53.416;6.730;2023-03-14T13:22:19;6.90;99.90
51982;DHT22;37998;53.416;6.730;2023-03-14T13:24:45;6.90;99.90
51982;DHT22;37998;53.416;6.730;2023-03-14T13:27:19;7.00;99.90
51982;DHT22;37998;53.416;6.730;2023-03-14T13:29:48;7.00;99.90
51982;DHT22;37998;53.416;6.730;2023-03-14T13:32:25;7.00;99.00
51982;DHT22;37998;53.416;6.730;2023-03-14T13:34:55;6.90;98.30
51982;DHT22;37998;53.416;6.730;2023-03-14T13:37:23;6.90;99.30
51982;DHT22;37998;53.416;6.730;2023-03-14T13:39:54;7.00;99.70
51982;DHT22;37998;53.416;6.730;2023-03-14T13:42:29;8.60;99.40
51982;DHT22;37998;53.416;6.730;2023-03-14T13:44:56;7.10;96.80
51982;DHT22;37998;53.416;6.730;2023-03-14T13:47:24;7.00;97.70
51982;DHT22;37998;53.416;6.730;2023-03-14T13:49:52;7.00;98.80
51982;DHT22;37998;53.416;6.730;2023-03-14T13:52:37;7.10;99.40
51982;DHT22;37998;53.416;6.730;2023-03-14T13:55:04;7.30;99.20
51982;DHT22;37998;53.416;6.730;2023-03-14T13:57:48;7.20;98.20
51982;DHT22;37998;53.416;6.730;2023-03-14T14:00:23;7.10;97.70
51982;DHT22;37998;53.416;6.730;2023-03-14T14:02:53;7.00;98.70
51982;DHT22;37998;53.416;6.730;2023-03-14T14:05:20;6.90;99.50
51982;DHT22;37998;53.416;6.730;2023-03-14T14:07:46;6.80;99.90
51982;DHT22;37998;53.416;6.730;2023-03-14T14:10:13;6.80;99.90
51982;DHT22;37998;53.416;6.730;2023-03-14T14:13:01;6.80;99.90
51982;DHT22;37998;53.416;6.730;2023-03-14T14:15:30;7.00;99.90
51982;DHT22;37998;53.416;6.730;2023-03-14T14:18:08;7.00;99.30
51982;DHT22;37998;53.416;6.730;2023-03-14T14:20:41;7.10;97.90
51982;DHT22;37998;53.416;6.730;2023-03-14T14:23:14;7.10;98.70
51982;DHT22;37998;53.416;6.730;2023-03-14T14:25:43;7.10;98.80
51982;DHT22;37998;53.416;6.730;2023-03-14T14:28:28;7.20;99.40
51982;DHT22;37998;53.416;6.730;2023-03-14T14:33:39;7.30;99.90
51982;DHT22;37998;53.416;6.730;2023-03-14T14:36:23;7.20;98.60
51982;DHT22;37998;53.416;6.730;2023-03-14T14:39:05;7.10;98.90
51982;DHT22;37998;53.416;6.730;2023-03-14T14:41:39;7.10;99.60
51982;DHT22;37998;53.416;6.730;2023-03-14T14:44:06;7.10;99.90
51982;DHT22;37998;53.416;6.730;2023-03-14T14:46:34;7.10;99.90
51982;DHT22;37998;53.416;6.730;2023-03-14T14:49:19;7.10;99.90
51982;DHT22;37998;53.416;6.730;2023-03-14T14:51:49;7.20;99.90
51982;DHT22;37998;53.416;6.730;2023-03-14T14:54:18;7.10;99.90
51982;DHT22;37998;53.416;6.730;2023-03-14T14:56:52;7.10;99.90
51982;DHT22;37998;53.416;6.730;2023-03-14T14:59:28;7.20;98.90
51982;DHT22;37998;53.416;6.730;2023-03-14T15:01:58;7.20;98.50
51982;DHT22;37998;53.416;6.730;2023-03-14T15:04:25;7.10;98.20
51982;DHT22;37998;53.416;6.730;2023-03-14T15:06:52;7.10;99.00
51982;DHT22;37998;53.416;6.730;2023-03-14T15:09:19;7.20;99.00
51982;DHT22;37998;53.416;6.730;2023-03-14T15:11:46;7.10;98.80
51982;DHT22;37998;53.416;6.730;2023-03-14T15:14:12;7.00;98.40
51982;DHT22;37998;53.416;6.730;2023-03-14T15:16:38;7.00;98.40
51982;DHT22;37998;53.416;6.730;2023-03-14T15:19:16;7.00;98.40
51982;DHT22;37998;53.416;6.730;2023-03-14T15:21:43;7.00;98.70
51982;DHT22;37998;53.416;6.730;2023-03-14T15:24:09;7.10;99.10
51982;DHT22;37998;53.416;6.730;2023-03-14T15:26:35;7.00;99.90
51982;DHT22;37998;53.416;6.730;2023-03-14T15:29:01;6.90;99.60
51982;DHT22;37998;53.416;6.730;2023-03-14T15:31:26;6.80;99.80
51982;DHT22;37998;53.416;6.730;2023-03-14T15:33:52;6.90;99.50
51982;DHT22;37998;53.416;6.730;2023-03-14T15:36:23;6.80;99.90
51982;DHT22;37998;53.416;6.730;2023-03-14T15:38:51;6.90;99.90
51982;DHT22;37998;53.416;6.730;2023-03-14T15:41:17;6.70;99.90
51982;DHT22;37998;53.416;6.730;2023-03-14T15:43:43;6.80;99.90
51982;DHT22;37998;53.416;6.730;2023-03-14T15:46:10;6.60;99.90
51982;DHT22;37998;53.416;6.730;2023-03-14T15:48:36;6.50;99.90
51982;DHT22;37998;53.416;6.730;2023-03-14T15:51:02;6.50;99.90
51982;DHT22;37998;53.416;6.730;2023-03-14T15:53:27;6.50;99.90
51982;DHT22;37998;53.416;6.730;2023-03-14T15:55:53;6.60;99.90
51982;DHT22;37998;53.416;6.730;2023-03-14T15:58:20;6.60;99.90
51982;DHT22;37998;53.416;6.730;2023-03-14T16:00:45;6.50;99.90
51982;DHT22;37998;53.416;6.730;2023-03-14T16:03:12;6.40;99.90
51982;DHT22;37998;53.416;6.730;2023-03-14T16:05:38;6.30;99.90
51982;DHT22;37998;53.416;6.730;2023-03-14T16:08:04;6.30;99.90
51982;DHT22;37998;53.416;6.730;2023-03-14T16:10:31;6.20;99.90
51982;DHT22;37998;53.416;6.730;2023-03-14T16:12:57;6.10;99.90
51982;DHT22;37998;53.416;6.730;2023-03-14T16:15:23;6.10;99.90
51982;DHT22;37998;53.416;6.730;2023-03-14T16:17:52;6.10;99.90
51982;DHT22;37998;53.416;6.730;2023-03-14T16:20:18;6.10;99.90
51982;DHT22;37998;53.416;6.730;2023-03-14T16:22:45;6.10;99.90
51982;DHT22;37998;53.416;6.730;2023-03-14T16:25:11;6.10;99.90
51982;DHT22;37998;53.416;6.730;2023-03-14T16:27:37;6.10;99.90
51982;DHT22;37998;53.416;6.730;2023-03-14T16:30:04;6.10;99.90
51982;DHT22;37998;53.416;6.730;2023-03-14T16:32:30;6.20;99.90
51982;DHT22;37998;53.416;6.730;2023-03-14T16:34:55;6.20;99.90
51982;DHT22;37998;53.416;6.730;2023-03-14T16:37:23;6.20;99.90
51982;DHT22;37998;53.416;6.730;2023-03-14T16:39:49;6.10;99.90
51982;DHT22;37998;53.416;6.730;2023-03-14T16:42:15;6.30;99.90
51982;DHT22;37998;53.416;6.730;2023-03-14T16:44:41;6.10;99.90
51982;DHT22;37998;53.416;6.730;2023-03-14T16:47:07;6.10;99.90
51982;DHT22;37998;53.416;6.730;2023-03-14T16:49:33;6.10;99.90
51982;DHT22;37998;53.416;6.730;2023-03-14T16:51:58;6.10;99.90
51982;DHT22;37998;53.416;6.730;2023-03-14T16:54:24;6.00;99.90
51982;DHT22;37998;53.416;6.730;2023-03-14T16:56:51;6.10;99.90
51982;DHT22;37998;53.416;6.730;2023-03-14T16:59:19;6.00;99.90
51982;DHT22;37998;53.416;6.730;2023-03-14T17:01:45;5.90;99.90
51982;DHT22;37998;53.416;6.730;2023-03-14T17:04:11;5.90;99.90
51982;DHT22;37998;53.416;6.730;2023-03-14T17:06:37;5.90;99.90
51982;DHT22;37998;53.416;6.730;2023-03-14T17:09:03;5.90;99.90